createdAt,value
2023-02-14T00:00:48.307Z,0.63
2023-02-14T00:03:15.052Z,0.66
2023-02-14T00:05:41.691Z,0.62
2023-02-14T00:08:08.376Z,0.61
2023-02-14T00:10:35.310Z,0.63
2023-02-14T00:13:01.901Z,0.57
2023-02-14T00:15:28.660Z,0.57
2023-02-14T00:17:59.656Z,0.56
2023-02-14T00:20:27.299Z,0.75
2023-02-14T00:22:53.931Z,0.82
2023-02-14T00:25:20.583Z,0.90
2023-02-14T00:27:47.255Z,0.92
2023-02-14T00:30:14.364Z,0.96
2023-02-14T00:32:42.330Z,1.20
2023-02-14T00:35:10.109Z,1.09
2023-02-14T00:37:36.885Z,1.15
2023-02-14T00:40:05.301Z,1.25
2023-02-14T00:42:31.972Z,1.26
2023-02-14T00:44:58.716Z,1.32
2023-02-14T00:47:25.379Z,1.25
2023-02-14T00:49:52.088Z,1.34
2023-02-14T00:52:18.769Z,1.30
2023-02-14T00:54:45.481Z,1.31
2023-02-14T00:57:12.114Z,1.35
2023-02-14T00:59:38.817Z,1.27
2023-02-14T01:02:05.448Z,1.23
2023-02-14T01:04:32.187Z,1.27
2023-02-14T01:06:58.729Z,1.09
2023-02-14T01:09:25.374Z,1.12
2023-02-14T01:11:52.055Z,0.97
2023-02-14T01:14:18.661Z,1.09
2023-02-14T01:16:45.341Z,1.07
2023-02-14T01:19:12.018Z,1.08
2023-02-14T01:21:38.620Z,0.98
2023-02-14T01:24:07.788Z,0.98
2023-02-14T01:26:35.456Z,1.08
2023-02-14T01:29:03.759Z,1.05
2023-02-14T01:31:32.943Z,1.16
2023-02-14T01:34:00.282Z,1.19
2023-02-14T01:36:33.670Z,1.03
2023-02-14T01:39:02.521Z,1.04
2023-02-14T01:41:31.887Z,1.10
2023-02-14T01:44:00.044Z,1.25
2023-02-14T01:46:29.354Z,1.07
2023-02-14T01:49:03.444Z,1.25
2023-02-14T01:51:31.301Z,1.26
2023-02-14T01:53:59.771Z,1.28
2023-02-14T01:56:36.792Z,1.18
2023-02-14T01:59:06.344Z,1.33
2023-02-14T02:01:33.072Z,1.28
2023-02-14T02:04:09.100Z,1.29
2023-02-14T02:06:46.499Z,1.32
2023-02-14T02:09:26.408Z,1.21
2023-02-14T02:11:53.020Z,1.21
2023-02-14T02:14:22.845Z,1.24
2023-02-14T02:17:07.643Z,1.25
2023-02-14T02:20:11.607Z,1.24
2023-02-14T02:23:19.933Z,1.25
2023-02-14T02:26:21.466Z,1.17
2023-02-14T02:29:03.340Z,1.18
2023-02-14T02:31:42.333Z,1.24
2023-02-14T02:34:37.281Z,1.27
2023-02-14T02:37:25.651Z,1.10
2023-02-14T02:40:11.166Z,1.24
2023-02-14T02:42:58.158Z,1.22
2023-02-14T02:45:57.832Z,1.02
2023-02-14T02:48:40.774Z,1.08
2023-02-14T02:51:29.538Z,1.12
2023-02-14T02:54:07.401Z,1.00
2023-02-14T02:56:55.970Z,1.02
2023-02-14T02:59:30.485Z,0.97
2023-02-14T03:02:56.076Z,1.03
2023-02-14T03:05:23.366Z,0.91
2023-02-14T03:07:50.091Z,0.88
2023-02-14T03:10:21.439Z,0.94
2023-02-14T03:12:56.807Z,0.92
2023-02-14T03:15:26.362Z,0.95
2023-02-14T03:18:39.788Z,0.93
2023-02-14T03:21:51.616Z,0.90
2023-02-14T03:25:00.204Z,0.82
2023-02-14T03:27:38.849Z,0.75
2023-02-14T03:30:12.357Z,0.60
2023-02-14T03:32:58.271Z,0.58
2023-02-14T03:35:32.202Z,0.66
2023-02-14T03:38:11.495Z,0.62
2023-02-14T03:41:05.721Z,0.67
2023-02-14T03:43:37.416Z,0.75
2023-02-14T03:46:13.808Z,0.62
2023-02-14T03:48:42.102Z,0.73
2023-02-14T03:51:12.190Z,0.56
2023-02-14T03:53:43.853Z,0.67
2023-02-14T03:56:22.541Z,0.65
2023-02-14T03:58:53.853Z,0.51
2023-02-14T04:01:31.085Z,0.67
2023-02-14T04:03:59.624Z,0.68
2023-02-14T04:06:26.997Z,0.66
2023-02-14T04:08:53.668Z,0.63
2023-02-14T04:11:20.651Z,0.62
2023-02-14T04:13:47.769Z,0.47
2023-02-14T04:16:14.562Z,0.66
2023-02-14T04:18:59.972Z,0.57
2023-02-14T04:21:26.555Z,0.59
2023-02-14T04:23:53.143Z,0.65
2023-02-14T04:26:19.742Z,0.61
2023-02-14T04:28:46.409Z,0.49
2023-02-14T04:31:13.181Z,0.65
2023-02-14T04:33:39.850Z,0.66
2023-02-14T04:36:06.862Z,0.68
2023-02-14T04:38:33.819Z,0.72
2023-02-14T04:41:01.057Z,0.70
2023-02-14T04:43:27.934Z,0.71
2023-02-14T04:45:54.656Z,0.66
2023-02-14T04:48:21.328Z,0.55
2023-02-14T04:50:53.985Z,0.38
2023-02-14T04:53:21.612Z,0.45
2023-02-14T04:55:51.520Z,0.62
2023-02-14T04:58:18.430Z,0.55
2023-02-14T05:00:45.134Z,0.48
2023-02-14T05:03:11.813Z,0.44
2023-02-14T05:05:38.453Z,0.60
2023-02-14T05:08:05.176Z,0.66
2023-02-14T05:10:31.770Z,0.63
2023-02-14T05:12:58.357Z,0.65
2023-02-14T05:15:24.967Z,0.83
2023-02-14T05:17:51.698Z,0.87
2023-02-14T05:20:18.418Z,0.75
2023-02-14T05:22:44.992Z,0.84
2023-02-14T05:25:11.632Z,0.83
2023-02-14T05:27:38.270Z,0.77
2023-02-14T05:30:05.809Z,0.57
2023-02-14T05:32:32.440Z,0.35
2023-02-14T05:35:01.029Z,0.50
2023-02-14T05:37:27.849Z,0.45
2023-02-14T05:39:54.646Z,0.46
2023-02-14T05:42:21.361Z,0.54
2023-02-14T05:44:48.777Z,0.60
2023-02-14T05:47:15.377Z,0.70
2023-02-14T05:49:42.133Z,0.78
2023-02-14T05:52:08.746Z,0.68
2023-02-14T05:54:35.603Z,0.65
2023-02-14T05:57:02.215Z,0.80
2023-02-14T05:59:28.798Z,0.94
2023-02-14T06:01:55.636Z,0.87
2023-02-14T06:04:22.375Z,1.25
2023-02-14T06:06:48.931Z,1.57
2023-02-14T06:09:15.584Z,1.70
2023-02-14T06:11:42.270Z,1.93
2023-02-14T06:14:08.871Z,1.93
2023-02-14T06:16:35.579Z,1.83
2023-02-14T06:19:02.292Z,1.73
2023-02-14T06:21:28.958Z,1.65
2023-02-14T06:23:55.574Z,1.60
2023-02-14T06:26:22.169Z,1.57
2023-02-14T06:28:53.533Z,1.81
2023-02-14T06:31:20.245Z,1.80
2023-02-14T06:33:46.933Z,1.95
2023-02-14T06:36:13.634Z,1.85
2023-02-14T06:38:41.287Z,2.03
2023-02-14T06:41:09.497Z,2.04
2023-02-14T06:43:36.310Z,2.05
2023-02-14T06:46:03.844Z,2.09
2023-02-14T06:48:30.542Z,2.15
2023-02-14T06:50:57.437Z,2.20
2023-02-14T06:53:24.470Z,2.33
2023-02-14T06:55:51.174Z,2.36
2023-02-14T06:58:17.874Z,2.41
2023-02-14T07:00:44.481Z,2.37
2023-02-14T07:03:11.151Z,2.38
2023-02-14T07:05:38.020Z,2.22
2023-02-14T07:08:07.210Z,2.26
2023-02-14T07:10:35.372Z,2.26
2023-02-14T07:13:02.203Z,2.31
2023-02-14T07:15:29.009Z,2.29
2023-02-14T07:17:55.695Z,2.23
2023-02-14T07:20:22.632Z,2.27
2023-02-14T07:22:49.386Z,2.15
2023-02-14T07:25:16.051Z,2.13
2023-02-14T07:27:43.307Z,2.29
2023-02-14T07:30:11.291Z,2.27
2023-02-14T07:32:39.267Z,2.26
2023-02-14T07:35:08.458Z,2.42
2023-02-14T07:37:35.650Z,2.29
2023-02-14T07:40:02.491Z,2.41
2023-02-14T07:42:29.115Z,2.39
2023-02-14T07:44:55.722Z,2.34
2023-02-14T07:47:22.316Z,2.25
2023-02-14T07:49:48.896Z,2.19
2023-02-14T07:52:15.522Z,2.09
2023-02-14T07:54:42.282Z,2.13
2023-02-14T07:57:09.269Z,2.39
2023-02-14T07:59:35.830Z,2.29
2023-02-14T08:02:02.448Z,2.17
2023-02-14T08:04:29.302Z,2.37
2023-02-14T08:06:55.952Z,2.28
2023-02-14T08:09:25.816Z,2.37
2023-02-14T08:12:12.565Z,2.38
2023-02-14T08:14:39.280Z,2.41
2023-02-14T08:17:07.484Z,2.36
2023-02-14T08:19:34.541Z,2.30
2023-02-14T08:22:01.199Z,2.23
2023-02-14T08:24:28.249Z,2.29
2023-02-14T08:26:55.342Z,2.37
2023-02-14T08:29:21.939Z,2.31
2023-02-14T08:31:48.928Z,2.24
2023-02-14T08:34:16.786Z,2.36
2023-02-14T08:36:43.884Z,2.10
2023-02-14T08:39:10.837Z,2.24
2023-02-14T08:41:37.595Z,2.24
2023-02-14T08:44:04.311Z,2.07
2023-02-14T08:46:31.093Z,1.88
2023-02-14T08:48:57.739Z,2.07
2023-02-14T08:51:25.889Z,2.21
2023-02-14T08:53:53.249Z,2.34
2023-02-14T08:56:22.686Z,2.39
2023-02-14T08:58:52.573Z,2.32
2023-02-14T09:01:19.430Z,2.12
2023-02-14T09:03:46.117Z,2.25
2023-02-14T09:06:17.288Z,2.31
2023-02-14T09:08:45.080Z,2.23
2023-02-14T09:11:14.854Z,2.17
2023-02-14T09:13:45.330Z,2.23
2023-02-14T09:16:13.194Z,2.31
2023-02-14T09:18:40.716Z,2.25
2023-02-14T09:21:10.309Z,2.40
2023-02-14T09:23:37.820Z,2.47
2023-02-14T09:26:07.802Z,2.29
2023-02-14T09:28:35.516Z,2.40
2023-02-14T09:31:11.218Z,2.29
2023-02-14T09:33:56.764Z,2.19
2023-02-14T09:36:23.422Z,2.29
2023-02-14T09:38:50.069Z,2.12
2023-02-14T09:41:25.445Z,2.19
2023-02-14T09:43:59.296Z,2.28
2023-02-14T09:46:27.648Z,2.38
2023-02-14T09:48:55.167Z,2.51
2023-02-14T09:51:26.466Z,2.37
2023-02-14T09:54:02.430Z,2.31
2023-02-14T09:56:52.102Z,2.34
2023-02-14T09:59:29.461Z,2.22
2023-02-14T10:02:16.144Z,2.12
2023-02-14T10:05:24.015Z,2.02
2023-02-14T10:08:21.830Z,1.98
2023-02-14T10:11:00.106Z,2.02
2023-02-14T10:13:33.579Z,2.17
2023-02-14T10:16:09.455Z,2.11
2023-02-14T10:18:45.103Z,1.99
2023-02-14T10:21:22.021Z,2.01
2023-02-14T10:24:02.127Z,2.07
2023-02-14T10:26:38.240Z,2.22
2023-02-14T10:29:11.135Z,2.35
2023-02-14T10:31:44.955Z,2.16
2023-02-14T10:34:25.928Z,1.58
2023-02-14T10:37:10.956Z,2.10
2023-02-14T10:39:55.433Z,2.12
2023-02-14T10:43:01.430Z,1.38
2023-02-14T10:45:42.627Z,2.06
2023-02-14T10:48:28.828Z,1.99
2023-02-14T10:51:04.751Z,1.98
2023-02-14T10:53:51.133Z,1.94
2023-02-14T10:56:23.722Z,2.07
2023-02-14T10:58:52.529Z,1.99
2023-02-14T11:01:20.024Z,2.13
2023-02-14T11:03:58.594Z,2.17
2023-02-14T11:06:25.764Z,2.01
2023-02-14T11:08:52.447Z,2.21
2023-02-14T11:11:24.448Z,2.26
2023-02-14T11:13:52.044Z,2.18
2023-02-14T11:16:39.977Z,2.21
2023-02-14T11:19:20.785Z,2.28
2023-02-14T11:21:50.704Z,2.33
2023-02-14T11:24:32.505Z,2.30
2023-02-14T11:27:19.241Z,2.40
2023-02-14T11:29:52.618Z,2.43
2023-02-14T11:32:23.502Z,2.62
2023-02-14T11:35:04.056Z,2.52
2023-02-14T11:37:44.567Z,2.46
2023-02-14T11:40:31.986Z,2.60
2023-02-14T11:43:13.813Z,2.68
2023-02-14T11:45:42.259Z,2.68
2023-02-14T11:48:37.085Z,2.71
2023-02-14T11:51:16.454Z,2.71
2023-02-14T11:53:49.951Z,2.67
2023-02-14T11:56:20.533Z,2.54
2023-02-14T11:58:57.894Z,2.31
2023-02-14T12:01:36.544Z,2.12
2023-02-14T12:04:14.405Z,2.69
2023-02-14T12:06:41.207Z,2.53
2023-02-14T12:09:22.771Z,2.80
2023-02-14T12:11:58.974Z,2.70
2023-02-14T12:14:29.776Z,2.95
2023-02-14T12:17:18.952Z,2.88
2023-02-14T12:20:08.902Z,2.56
2023-02-14T12:23:00.511Z,2.95
2023-02-14T12:25:37.081Z,2.95
2023-02-14T12:28:12.308Z,2.66
2023-02-14T12:30:39.015Z,2.80
2023-02-14T12:33:26.102Z,2.86
2023-02-14T12:35:52.644Z,2.96
2023-02-14T12:39:02.655Z,3.02
2023-02-14T12:41:41.079Z,2.92
2023-02-14T12:44:16.668Z,2.09
2023-02-14T12:47:05.046Z,3.02
2023-02-14T12:50:16.919Z,3.26
2023-02-14T12:52:58.756Z,3.19
2023-02-14T12:58:42.196Z,3.11
2023-02-14T13:01:28.437Z,3.10
2023-02-14T13:04:37.749Z,3.22
2023-02-14T13:07:45.557Z,2.52
2023-02-14T13:11:00.778Z,3.23
2023-02-14T13:14:08.750Z,2.97
2023-02-14T13:16:50.861Z,2.55
2023-02-14T13:19:41.626Z,3.04
2023-02-14T13:22:13.847Z,3.19
2023-02-14T13:24:47.869Z,3.04
2023-02-14T13:27:22.283Z,2.83
2023-02-14T13:29:54.570Z,2.94
2023-02-14T13:32:22.648Z,3.06
2023-02-14T13:34:50.466Z,2.93
2023-02-14T13:37:20.563Z,2.86
2023-02-14T13:39:53.696Z,3.14
2023-02-14T13:42:48.009Z,3.19
2023-02-14T13:45:30.691Z,3.06
2023-02-14T13:48:14.035Z,2.85
2023-02-14T13:50:55.997Z,3.06
2023-02-14T13:53:42.489Z,3.03
2023-02-14T13:56:12.225Z,2.99
2023-02-14T13:59:06.091Z,3.08
2023-02-14T14:01:40.650Z,2.98
2023-02-14T14:04:28.899Z,3.06
2023-02-14T14:07:22.368Z,2.84
2023-02-14T14:09:48.965Z,3.04
2023-02-14T14:12:27.533Z,3.21
2023-02-14T14:15:06.505Z,3.30
2023-02-14T14:17:35.876Z,3.18
2023-02-14T14:20:24.196Z,3.08
2023-02-14T14:22:54.450Z,2.97
2023-02-14T14:25:35.574Z,2.86
2023-02-14T14:28:10.178Z,2.50
2023-02-14T14:30:38.487Z,2.82
2023-02-14T14:33:26.847Z,3.00
2023-02-14T14:35:55.352Z,2.87
2023-02-14T14:38:22.704Z,2.64
2023-02-14T14:40:50.991Z,2.56
2023-02-14T14:43:24.245Z,3.10
2023-02-14T14:45:53.039Z,2.75
2023-02-14T14:48:40.185Z,2.67
2023-02-14T14:51:08.981Z,2.99
2023-02-14T14:53:47.060Z,2.95
2023-02-14T14:56:19.714Z,2.68
2023-02-14T14:58:47.023Z,2.94
2023-02-14T15:01:32.375Z,2.96
2023-02-14T15:04:16.465Z,2.83
2023-02-14T15:06:43.166Z,2.75
2023-02-14T15:09:36.089Z,2.19
2023-02-14T15:12:21.891Z,2.15
2023-02-14T15:14:54.797Z,2.63
2023-02-14T15:17:33.088Z,2.79
2023-02-14T15:20:08.596Z,2.78
2023-02-14T15:22:35.268Z,2.78
2023-02-14T15:25:09.768Z,2.77
2023-02-14T15:27:41.199Z,2.83
2023-02-14T15:30:20.138Z,2.75
2023-02-14T15:32:49.425Z,2.40
2023-02-14T15:35:29.123Z,2.41
2023-02-14T15:38:00.806Z,2.59
2023-02-14T15:40:33.500Z,2.50
2023-02-14T15:43:32.013Z,2.77
2023-02-14T15:46:27.907Z,2.62
2023-02-14T15:48:58.505Z,2.71
2023-02-14T15:51:29.821Z,2.56
2023-02-14T15:54:00.643Z,2.31
2023-02-14T15:56:46.756Z,2.53
2023-02-14T15:59:23.548Z,2.58
2023-02-14T16:01:59.682Z,2.57
2023-02-14T16:04:29.009Z,2.24
2023-02-14T16:07:22.975Z,2.63
2023-02-14T16:09:51.767Z,2.22
2023-02-14T16:12:36.255Z,2.13
2023-02-14T16:15:15.188Z,2.48
2023-02-14T16:17:44.096Z,2.39
2023-02-14T16:20:28.649Z,2.61
2023-02-14T16:23:15.269Z,2.58
2023-02-14T16:25:42.030Z,1.93
2023-02-14T16:28:08.861Z,2.45
2023-02-14T16:30:37.405Z,2.36
2023-02-14T16:33:05.743Z,2.04
2023-02-14T16:35:32.748Z,2.44
2023-02-14T16:37:59.386Z,2.25
2023-02-14T16:40:28.763Z,2.22
2023-02-14T16:42:55.456Z,2.23
2023-02-14T16:45:22.197Z,2.40
2023-02-14T16:47:49.601Z,2.31
2023-02-14T16:50:17.706Z,2.34
2023-02-14T16:52:49.037Z,2.37
2023-02-14T16:55:17.332Z,2.24
2023-02-14T16:57:46.424Z,2.29
2023-02-14T17:00:14.090Z,2.21
2023-02-14T17:02:43.875Z,2.18
2023-02-14T17:05:11.374Z,2.21
2023-02-14T17:07:40.979Z,2.14
2023-02-14T17:10:18.083Z,2.32
2023-02-14T17:12:47.369Z,2.15
2023-02-14T17:15:18.290Z,2.34
2023-02-14T17:17:47.176Z,2.27
2023-02-14T17:20:14.760Z,2.32
2023-02-14T17:22:44.686Z,2.38
2023-02-14T17:25:11.642Z,2.27
2023-02-14T17:27:38.951Z,2.45
2023-02-14T17:30:06.178Z,2.31
2023-02-14T17:32:33.100Z,2.45
2023-02-14T17:35:01.071Z,2.40
2023-02-14T17:37:28.883Z,2.33
2023-02-14T17:39:55.481Z,2.41
2023-02-14T17:42:22.304Z,2.42
2023-02-14T17:44:48.950Z,2.42
2023-02-14T17:47:18.122Z,2.49
2023-02-14T17:49:47.448Z,2.51
2023-02-14T17:52:15.743Z,2.46
2023-02-14T17:54:42.929Z,2.49
2023-02-14T17:57:09.588Z,2.44
2023-02-14T17:59:36.751Z,2.51
2023-02-14T18:02:03.907Z,2.55
2023-02-14T18:04:30.587Z,2.24
2023-02-14T18:06:57.206Z,2.37
2023-02-14T18:09:25.734Z,2.36
2023-02-14T18:11:52.440Z,2.25
2023-02-14T18:14:19.020Z,2.43
2023-02-14T18:16:45.934Z,2.48
2023-02-14T18:19:15.871Z,2.48
2023-02-14T18:21:44.775Z,2.49
2023-02-14T18:24:12.452Z,2.45
2023-02-14T18:26:41.241Z,2.46
2023-02-14T18:29:08.828Z,2.25
2023-02-14T18:31:41.441Z,2.43
2023-02-14T18:34:08.758Z,2.38
2023-02-14T18:36:37.339Z,2.31
2023-02-14T18:39:04.477Z,2.35
2023-02-14T18:41:31.534Z,2.44
2023-02-14T18:43:58.774Z,2.27
2023-02-14T18:46:27.884Z,2.45
2023-02-14T18:48:56.667Z,2.37
2023-02-14T18:51:34.769Z,2.37
2023-02-14T18:54:03.132Z,2.08
2023-02-14T18:56:32.682Z,2.35
2023-02-14T18:59:03.717Z,2.29
2023-02-14T19:01:33.585Z,2.23
2023-02-14T19:04:01.391Z,2.22
2023-02-14T19:06:30.512Z,2.34
2023-02-14T19:08:58.048Z,2.28
2023-02-14T19:11:28.755Z,2.19
2023-02-14T19:13:58.373Z,2.15
2023-02-14T19:16:31.374Z,2.21
2023-02-14T19:18:59.159Z,2.22
2023-02-14T19:21:29.485Z,2.19
2023-02-14T19:23:57.754Z,2.13
2023-02-14T19:26:27.562Z,2.20
2023-02-14T19:28:59.656Z,2.03
2023-02-14T19:31:27.110Z,2.20
2023-02-14T19:33:54.471Z,2.21
2023-02-14T19:36:23.281Z,2.05
2023-02-14T19:38:52.498Z,2.19
2023-02-14T19:41:22.853Z,2.22
2023-02-14T19:43:51.368Z,2.05
2023-02-14T19:46:21.723Z,1.95
2023-02-14T19:48:48.818Z,1.98
2023-02-14T19:51:27.762Z,2.12
2023-02-14T19:53:56.104Z,2.08
2023-02-14T19:56:25.838Z,1.99
2023-02-14T19:58:53.336Z,1.93
2023-02-14T20:01:33.315Z,1.94
2023-02-14T20:04:00.732Z,1.94
2023-02-14T20:06:29.384Z,1.89
2023-02-14T20:08:56.065Z,1.76
2023-02-14T20:11:31.427Z,1.79
2023-02-14T20:13:59.418Z,1.77
2023-02-14T20:16:28.185Z,1.60
2023-02-14T20:18:55.037Z,1.72
2023-02-14T20:21:25.626Z,1.60
2023-02-14T20:23:52.463Z,1.63
2023-02-14T20:26:19.679Z,1.43
2023-02-14T20:28:48.781Z,1.55
2023-02-14T20:31:19.454Z,1.43
2023-02-14T20:33:47.690Z,1.46
2023-02-14T20:36:14.444Z,1.38
2023-02-14T20:38:41.149Z,1.25
2023-02-14T20:41:10.762Z,1.16
2023-02-14T20:43:38.432Z,1.33
2023-02-14T20:46:06.790Z,1.33
2023-02-14T20:48:34.721Z,1.32
2023-02-14T20:51:27.788Z,1.25
2023-02-14T20:53:54.560Z,1.18
2023-02-14T20:56:23.422Z,1.06
2023-02-14T20:58:50.479Z,1.26
2023-02-14T21:01:20.094Z,1.20
2023-02-14T21:03:50.860Z,1.10
2023-02-14T21:06:19.621Z,1.14
2023-02-14T21:08:46.719Z,0.94
2023-02-14T21:11:16.253Z,0.98
2023-02-14T21:13:42.987Z,0.92
2023-02-14T21:16:17.304Z,1.05
2023-02-14T21:18:48.663Z,0.93
2023-02-14T21:21:21.736Z,0.96
2023-02-14T21:23:49.905Z,0.99
2023-02-14T21:26:17.375Z,0.94
2023-02-14T21:28:44.186Z,0.83
2023-02-14T21:31:14.639Z,0.94
2023-02-14T21:33:41.310Z,0.96
2023-02-14T21:36:08.098Z,0.97
2023-02-14T21:38:35.576Z,0.88
2023-02-14T21:41:08.119Z,0.79
2023-02-14T21:43:39.898Z,0.69
2023-02-14T21:46:09.587Z,0.84
2023-02-14T21:48:55.244Z,0.74
2023-02-14T21:51:22.279Z,0.90
2023-02-14T21:53:49.439Z,0.82
2023-02-14T21:56:19.834Z,0.89
2023-02-14T21:58:48.218Z,0.87
2023-02-14T22:01:16.783Z,0.76
2023-02-14T22:03:43.863Z,0.83
2023-02-14T22:06:10.714Z,0.98
2023-02-14T22:08:37.442Z,0.95
2023-02-14T22:11:08.727Z,0.98
2023-02-14T22:13:36.064Z,1.07
2023-02-14T22:16:07.019Z,1.00
2023-02-14T22:18:34.268Z,1.04
2023-02-14T22:21:09.629Z,1.02
2023-02-14T22:23:37.300Z,1.06
2023-02-14T22:26:28.392Z,1.06
2023-02-14T22:28:57.305Z,1.14
2023-02-14T22:31:25.853Z,1.22
2023-02-14T22:33:53.074Z,1.19
2023-02-14T22:36:20.160Z,1.20
2023-02-14T22:38:46.803Z,1.30
2023-02-14T22:41:16.563Z,1.29
2023-02-14T22:43:43.929Z,1.25
2023-02-14T22:46:22.174Z,1.31
2023-02-14T22:48:49.949Z,1.27
2023-02-14T22:51:25.996Z,1.08
2023-02-14T22:53:55.404Z,1.28
2023-02-14T22:56:25.532Z,1.36
2023-02-14T22:59:00.999Z,1.26
2023-02-14T23:01:28.406Z,1.21
2023-02-14T23:03:57.581Z,1.02
2023-02-14T23:06:25.783Z,1.18
2023-02-14T23:08:54.449Z,1.06
2023-02-14T23:11:27.918Z,1.10
2023-02-14T23:14:13.632Z,1.05
2023-02-14T23:16:59.882Z,0.95
2023-02-14T23:19:48.066Z,0.60
2023-02-14T23:22:21.222Z,0.87
2023-02-14T23:24:52.732Z,0.65
2023-02-14T23:27:21.698Z,0.81
2023-02-14T23:29:48.391Z,0.80
2023-02-14T23:32:15.118Z,0.76
2023-02-14T23:34:44.231Z,0.59
2023-02-14T23:37:12.060Z,0.76
2023-02-14T23:39:38.653Z,0.78
2023-02-14T23:42:14.958Z,0.84
2023-02-14T23:44:45.866Z,0.82
2023-02-14T23:47:14.520Z,0.71
2023-02-14T23:49:41.960Z,0.78
2023-02-14T23:52:11.115Z,0.79
2023-02-14T23:54:38.837Z,0.77
2023-02-14T23:57:06.205Z,0.71
2023-02-14T23:59:33.039Z,0.72
